Time;durP1;ratioP1;P1;durP2;ratioP2;P2;SDS_P1;SDS_P2;PMS_P1;PMS_P2;Temp;Humidity;BMP_temperature;BMP_pressure;BME280_temperature;BME280_humidity;BME280_pressure;Samples;Min_cycle;Max_cycle;Signal;HPM_P1;HPM_P2
2023/08/05 00:00:51;;;;;;;;;;;26.70;71.90;;;;;;5181039;27;20389;-34
2023/08/05 00:03:17;;;;;;;;;;;26.80;72.00;;;;;;5183357;27;19919;-34
2023/08/05 00:05:43;;;;;;;;;;;26.80;72.10;;;;;;5180144;27;19922;-34
2023/08/05 00:08:09;;;;;;;;;;;26.80;72.10;;;;;;5182423;27;19918;-33
2023/08/05 00:10:35;;;;;;;;;;;26.70;72.20;;;;;;5173551;27;19918;-34
2023/08/05 00:13:01;;;;;;;;;;;26.80;72.20;;;;;;5174107;27;19907;-34
2023/08/05 00:15:27;;;;;;;;;;;26.80;72.30;;;;;;5175972;27;19926;-34
2023/08/05 00:17:53;;;;;;;;;;;26.80;72.40;;;;;;5170266;27;19926;-33
2023/08/05 00:20:19;;;;;;;;;;;26.80;72.40;;;;;;5173864;27;20406;-34
2023/08/05 00:22:45;;;;;;;;;;;26.80;72.50;;;;;;5170621;27;19907;-34
2023/08/05 00:25:11;;;;;;;;;;;26.80;72.50;;;;;;5174913;27;19959;-34
2023/08/05 00:27:36;;;;;;;;;;;26.80;72.50;;;;;;5179587;27;19939;-34
2023/08/05 00:30:03;;;;;;;;;;;26.80;72.50;;;;;;5169400;27;19907;-34
2023/08/05 00:32:29;;;;;;;;;;;26.80;72.60;;;;;;5165965;27;20419;-34
2023/08/05 00:34:56;;;;;;;;;;;26.80;72.60;;;;;;5180587;27;19919;-34
2023/08/05 00:37:22;;;;;;;;;;;26.80;72.80;;;;;;5167132;27;19930;-34
2023/08/05 00:39:47;;;;;;;;;;;26.80;72.60;;;;;;5173644;27;19915;-34
2023/08/05 00:42:18;;;;;;;;;;;26.80;72.60;;;;;;5182504;27;20367;-34
2023/08/05 00:44:44;;;;;;;;;;;26.80;72.70;;;;;;5172031;27;19911;-34
2023/08/05 00:47:10;;;;;;;;;;;26.80;72.80;;;;;;5167595;27;19957;-34
2023/08/05 00:49:36;;;;;;;;;;;26.80;72.70;;;;;;5170927;27;19915;-34
2023/08/05 00:52:02;;;;;;;;;;;26.80;72.90;;;;;;5174354;27;19932;-34
2023/08/05 00:54:28;;;;;;;;;;;26.80;72.90;;;;;;5176738;27;19984;-34
2023/08/05 00:56:54;;;;;;;;;;;26.80;72.80;;;;;;5176386;27;19922;-34
2023/08/05 00:59:20;;;;;;;;;;;26.80;72.90;;;;;;5169744;27;19914;-33
2023/08/05 01:01:46;;;;;;;;;;;26.80;72.90;;;;;;5170272;27;19911;-34
2023/08/05 01:04:12;;;;;;;;;;;26.80;72.90;;;;;;5165946;27;19915;-34
2023/08/05 01:06:38;;;;;;;;;;;26.80;72.90;;;;;;5171056;27;19911;-34
2023/08/05 01:09:03;;;;;;;;;;;26.80;73.00;;;;;;5168419;27;19911;-35
2023/08/05 01:11:29;;;;;;;;;;;26.80;72.90;;;;;;5165838;27;19951;-34
2023/08/05 01:13:55;;;;;;;;;;;26.80;73.00;;;;;;5176337;27;19911;-34
2023/08/05 01:16:21;;;;;;;;;;;26.80;73.00;;;;;;5166456;27;19915;-34
2023/08/05 01:18:47;;;;;;;;;;;26.80;73.00;;;;;;5165906;27;19919;-34
2023/08/05 01:21:15;;;;;;;;;;;26.80;73.10;;;;;;5160190;27;19922;-34
2023/08/05 01:23:43;;;;;;;;;;;26.80;73.00;;;;;;5176057;27;19915;-34
2023/08/05 01:26:09;;;;;;;;;;;26.80;73.10;;;;;;5148997;27;19921;-34
2023/08/05 01:28:35;;;;;;;;;;;26.80;73.10;;;;;;5172910;27;19954;-34
2023/08/05 01:31:01;;;;;;;;;;;26.80;73.10;;;;;;5149661;27;19952;-34
2023/08/05 01:33:27;;;;;;;;;;;26.80;73.20;;;;;;5178128;27;19920;-34
2023/08/05 01:35:53;;;;;;;;;;;26.80;73.20;;;;;;5173081;27;19919;-34
2023/08/05 01:38:19;;;;;;;;;;;26.80;73.20;;;;;;5166859;27;19919;-34
2023/08/05 01:40:45;;;;;;;;;;;26.80;73.30;;;;;;5179074;27;19950;-34
2023/08/05 01:43:11;;;;;;;;;;;26.80;73.20;;;;;;5178988;27;19911;-34
2023/08/05 01:45:37;;;;;;;;;;;26.80;73.20;;;;;;5173236;27;19940;-34
2023/08/05 01:48:03;;;;;;;;;;;26.80;73.10;;;;;;5166004;27;20262;-34
2023/08/05 01:50:29;;;;;;;;;;;26.80;73.20;;;;;;5173437;27;19915;-34
2023/08/05 01:52:54;;;;;;;;;;;26.80;73.10;;;;;;5169960;27;20011;-34
2023/08/05 01:55:20;;;;;;;;;;;26.80;73.10;;;;;;5173058;27;19911;-33
2023/08/05 01:57:46;;;;;;;;;;;26.80;73.20;;;;;;5173694;27;19926;-34
2023/08/05 02:00:12;;;;;;;;;;;26.80;73.20;;;;;;5180839;27;19937;-34
2023/08/05 02:02:38;;;;;;;;;;;26.80;73.20;;;;;;5175051;27;19922;-33
2023/08/05 02:05:04;;;;;;;;;;;26.80;73.10;;;;;;5176411;27;20390;-34
2023/08/05 02:07:30;;;;;;;;;;;26.80;73.10;;;;;;5175907;27;19915;-34
2023/08/05 02:09:56;;;;;;;;;;;26.80;73.10;;;;;;5176956;27;19918;-34
2023/08/05 02:12:22;;;;;;;;;;;26.80;73.10;;;;;;5184574;27;19911;-34
2023/08/05 02:14:48;;;;;;;;;;;26.80;73.10;;;;;;5176324;27;19934;-34
2023/08/05 02:17:14;;;;;;;;;;;26.80;73.10;;;;;;5177038;27;19919;-34
2023/08/05 02:19:39;;;;;;;;;;;26.80;73.00;;;;;;5176609;27;19922;-34
2023/08/05 02:22:05;;;;;;;;;;;26.80;73.20;;;;;;5180042;27;19919;-34
2023/08/05 02:24:31;;;;;;;;;;;26.80;73.20;;;;;;5161179;27;19914;-34
2023/08/05 02:26:57;;;;;;;;;;;26.70;73.20;;;;;;5173917;27;20355;-34
2023/08/05 02:29:23;;;;;;;;;;;26.70;73.30;;;;;;5176911;27;19922;-34
2023/08/05 02:31:49;;;;;;;;;;;26.70;73.30;;;;;;5173502;27;19918;-34
2023/08/05 02:34:15;;;;;;;;;;;26.70;73.30;;;;;;5185770;27;20770;-34
2023/08/05 02:36:41;;;;;;;;;;;26.70;73.30;;;;;;5181691;27;19919;-33
2023/08/05 02:39:06;;;;;;;;;;;26.70;73.20;;;;;;5177765;27;19922;-34
2023/08/05 02:41:32;;;;;;;;;;;26.70;73.20;;;;;;5176088;27;19945;-34
2023/08/05 02:43:58;;;;;;;;;;;26.70;73.10;;;;;;5175214;27;19950;-34
2023/08/05 02:46:24;;;;;;;;;;;26.70;73.00;;;;;;5180718;27;19954;-33
2023/08/05 02:48:50;;;;;;;;;;;26.70;73.00;;;;;;5175875;27;19911;-33
2023/08/05 02:51:16;;;;;;;;;;;26.70;73.00;;;;;;5179368;27;19918;-34
2023/08/05 02:53:42;;;;;;;;;;;26.70;73.00;;;;;;5173074;27;19922;-34
2023/08/05 02:56:08;;;;;;;;;;;26.70;73.00;;;;;;5177291;27;19998;-34
2023/08/05 02:58:34;;;;;;;;;;;26.70;72.90;;;;;;5177421;27;19958;-33
2023/08/05 03:01:06;;;;;;;;;;;26.70;72.80;;;;;;5178865;27;19911;-34
2023/08/05 03:03:32;;;;;;;;;;;26.70;72.90;;;;;;5175664;27;19979;-34
2023/08/05 03:05:58;;;;;;;;;;;26.70;72.80;;;;;;5175501;27;19971;-34
2023/08/05 03:08:24;;;;;;;;;;;26.70;73.00;;;;;;5181856;27;19935;-34
2023/08/05 03:10:57;;;;;;;;;;;26.70;73.20;;;;;;5181102;27;19974;-33
2023/08/05 03:13:23;;;;;;;;;;;26.60;73.20;;;;;;5183679;27;19921;-34
2023/08/05 03:15:50;;;;;;;;;;;26.70;73.40;;;;;;5175556;27;19946;-34
2023/08/05 03:18:15;;;;;;;;;;;26.60;73.40;;;;;;5177274;27;20694;-34
2023/08/05 03:20:43;;;;;;;;;;;26.60;73.30;;;;;;5176924;27;19933;-34
2023/08/05 03:23:09;;;;;;;;;;;26.60;73.30;;;;;;5175412;27;19911;-34
2023/08/05 03:25:35;;;;;;;;;;;26.60;73.20;;;;;;5179649;27;19917;-34
2023/08/05 03:28:21;;;;;;;;;;;26.60;73.10;;;;;;5177194;27;19915;-34
2023/08/05 03:30:47;;;;;;;;;;;26.60;73.10;;;;;;5122242;28;20119;-34
2023/08/05 03:33:13;;;;;;;;;;;26.60;73.00;;;;;;5122426;28;20001;-34
2023/08/05 03:35:43;;;;;;;;;;;26.60;73.00;;;;;;5102721;28;20013;-34
2023/08/05 03:38:08;;;;;;;;;;;26.60;72.90;;;;;;5085178;28;19920;-37
2023/08/05 03:40:34;;;;;;;;;;;26.50;72.80;;;;;;5102256;28;19947;-33
2023/08/05 03:43:01;;;;;;;;;;;26.60;72.90;;;;;;5101860;28;19916;-33
2023/08/05 03:45:27;;;;;;;;;;;26.60;72.90;;;;;;5102166;28;19950;-34
2023/08/05 03:47:54;;;;;;;;;;;26.50;73.40;;;;;;5102299;28;20370;-34
2023/08/05 03:50:23;;;;;;;;;;;26.50;72.70;;;;;;5100808;28;20028;-34
2023/08/05 03:52:49;;;;;;;;;;;26.50;72.60;;;;;;5101666;28;19923;-34
2023/08/05 03:55:15;;;;;;;;;;;26.50;72.90;;;;;;5101920;28;19916;-34
2023/08/05 03:57:41;;;;;;;;;;;26.50;73.10;;;;;;5102279;28;19920;-33
2023/08/05 04:00:11;;;;;;;;;;;26.50;73.20;;;;;;5096878;28;19938;-34
2023/08/05 04:02:37;;;;;;;;;;;26.50;73.30;;;;;;5095871;28;19916;-33
2023/08/05 04:05:06;;;;;;;;;;;26.50;73.40;;;;;;5101530;28;20495;-34
2023/08/05 04:07:32;;;;;;;;;;;26.50;73.40;;;;;;5120961;27;20303;-33
2023/08/05 04:09:58;;;;;;;;;;;26.50;73.40;;;;;;5153318;27;19915;-34
2023/08/05 04:12:25;;;;;;;;;;;26.50;73.30;;;;;;5147217;27;19950;-33
2023/08/05 04:14:52;;;;;;;;;;;26.50;73.10;;;;;;5153577;27;19919;-34
2023/08/05 04:17:19;;;;;;;;;;;26.40;73.00;;;;;;5155477;27;19927;-34
2023/08/05 04:19:46;;;;;;;;;;;26.40;72.90;;;;;;5156704;27;19907;-33
2023/08/05 04:22:12;;;;;;;;;;;26.40;72.90;;;;;;5151087;27;19922;-33
2023/08/05 04:24:41;;;;;;;;;;;26.40;72.90;;;;;;5153619;27;20563;-34
2023/08/05 04:27:07;;;;;;;;;;;26.40;72.80;;;;;;5159648;27;19918;-34
2023/08/05 04:29:33;;;;;;;;;;;26.40;72.90;;;;;;5148989;27;19922;-34
2023/08/05 04:31:59;;;;;;;;;;;26.40;72.90;;;;;;5153012;27;19908;-34
2023/08/05 04:34:25;;;;;;;;;;;26.40;72.90;;;;;;5162104;27;19919;-34
2023/08/05 04:36:51;;;;;;;;;;;26.40;72.80;;;;;;5167165;27;19923;-34
2023/08/05 04:39:20;;;;;;;;;;;26.40;72.90;;;;;;5182948;27;19926;-34
2023/08/05 04:41:46;;;;;;;;;;;26.40;73.00;;;;;;5175756;27;19922;-34
2023/08/05 04:44:12;;;;;;;;;;;26.40;73.20;;;;;;5168298;27;19986;-33
2023/08/05 04:46:37;;;;;;;;;;;26.40;73.20;;;;;;5173948;27;19935;-33
2023/08/05 04:49:09;;;;;;;;;;;26.40;73.40;;;;;;5166156;27;19952;-33
2023/08/05 04:51:35;;;;;;;;;;;26.40;73.40;;;;;;5178914;27;19911;-34
2023/08/05 04:54:01;;;;;;;;;;;26.40;73.50;;;;;;5176631;27;19960;-34
2023/08/05 04:56:27;;;;;;;;;;;26.40;73.40;;;;;;5175357;27;19991;-33
2023/08/05 04:58:53;;;;;;;;;;;26.30;73.10;;;;;;5177226;27;19915;-33
2023/08/05 05:01:19;;;;;;;;;;;26.30;73.10;;;;;;5174764;27;19911;-34
2023/08/05 05:03:46;;;;;;;;;;;26.30;73.00;;;;;;5166518;27;19915;-34
2023/08/05 05:06:12;;;;;;;;;;;26.30;73.00;;;;;;5174517;27;19986;-34
2023/08/05 05:08:38;;;;;;;;;;;26.30;73.10;;;;;;5176100;27;20009;-34
2023/08/05 05:11:04;;;;;;;;;;;26.30;73.00;;;;;;5175607;27;19911;-33
2023/08/05 05:13:30;;;;;;;;;;;26.30;73.00;;;;;;5177093;27;19915;-33
2023/08/05 05:15:56;;;;;;;;;;;26.30;73.00;;;;;;5170120;27;19915;-33
2023/08/05 05:18:22;;;;;;;;;;;26.30;73.00;;;;;;5174083;27;19923;-34
2023/08/05 05:20:49;;;;;;;;;;;26.30;73.10;;;;;;5175946;27;19926;-33
2023/08/05 05:23:15;;;;;;;;;;;26.30;73.10;;;;;;5175950;27;19918;-33
2023/08/05 05:25:40;;;;;;;;;;;26.30;73.10;;;;;;5177694;27;19911;-34
2023/08/05 05:28:06;;;;;;;;;;;26.30;73.30;;;;;;5167264;27;19950;-33
2023/08/05 05:30:34;;;;;;;;;;;26.20;73.20;;;;;;5179339;27;20385;-33
2023/08/05 05:33:00;;;;;;;;;;;26.20;73.30;;;;;;5176908;27;19915;-33
2023/08/05 05:35:26;;;;;;;;;;;26.20;73.20;;;;;;5180314;27;19918;-34
2023/08/05 05:37:51;;;;;;;;;;;26.20;73.30;;;;;;5175445;27;19923;-33
2023/08/05 05:40:17;;;;;;;;;;;26.20;73.40;;;;;;5180740;27;19958;-33
2023/08/05 05:42:43;;;;;;;;;;;26.20;73.30;;;;;;5170510;27;19915;-34
2023/08/05 05:45:09;;;;;;;;;;;26.20;73.30;;;;;;5178011;27;20382;-33
2023/08/05 05:47:35;;;;;;;;;;;26.20;73.20;;;;;;5180927;27;19911;-33
2023/08/05 05:50:03;;;;;;;;;;;26.20;73.30;;;;;;5174873;27;19918;-33
2023/08/05 05:52:29;;;;;;;;;;;26.20;73.30;;;;;;5174023;27;19910;-34
2023/08/05 05:54:54;;;;;;;;;;;26.10;73.30;;;;;;5177625;27;19922;-34
2023/08/05 05:57:23;;;;;;;;;;;26.10;73.30;;;;;;5178923;27;19923;-33
2023/08/05 05:59:49;;;;;;;;;;;26.10;73.30;;;;;;5176639;27;19936;-33
2023/08/05 06:02:15;;;;;;;;;;;26.10;73.30;;;;;;5176583;27;19914;-34
2023/08/05 06:04:43;;;;;;;;;;;26.10;73.30;;;;;;5169094;27;20260;-34
2023/08/05 06:07:09;;;;;;;;;;;26.10;73.30;;;;;;5170172;27;19914;-33
2023/08/05 06:09:35;;;;;;;;;;;26.10;73.30;;;;;;5169312;27;19918;-33
2023/08/05 06:12:01;;;;;;;;;;;26.10;73.40;;;;;;5176127;27;19910;-33
2023/08/05 06:14:29;;;;;;;;;;;26.10;73.40;;;;;;5165344;27;19919;-33
2023/08/05 06:16:55;;;;;;;;;;;26.10;73.50;;;;;;5180754;27;19926;-33
2023/08/05 06:19:21;;;;;;;;;;;26.10;73.50;;;;;;5176913;27;20663;-34
2023/08/05 06:21:47;;;;;;;;;;;26.10;73.60;;;;;;5178804;27;19910;-34
2023/08/05 06:24:13;;;;;;;;;;;26.10;73.60;;;;;;5178937;27;19915;-34
2023/08/05 06:26:39;;;;;;;;;;;26.10;73.60;;;;;;5186284;27;19915;-33
2023/08/05 06:29:05;;;;;;;;;;;26.10;73.60;;;;;;5178864;27;19915;-34
2023/08/05 06:31:31;;;;;;;;;;;26.10;73.60;;;;;;5182311;27;19915;-34
2023/08/05 06:33:57;;;;;;;;;;;26.00;73.40;;;;;;5178593;27;19971;-34
2023/08/05 06:36:22;;;;;;;;;;;26.00;73.40;;;;;;5169665;27;19915;-33
2023/08/05 06:38:48;;;;;;;;;;;26.00;73.50;;;;;;5168248;27;19957;-33
2023/08/05 06:41:14;;;;;;;;;;;26.00;73.50;;;;;;5168145;27;20009;-33
2023/08/05 06:43:40;;;;;;;;;;;26.00;73.40;;;;;;5167436;27;19911;-34
2023/08/05 06:46:06;;;;;;;;;;;26.00;73.50;;;;;;5176037;27;20009;-33
2023/08/05 06:48:32;;;;;;;;;;;26.00;73.50;;;;;;5168286;27;19911;-33
2023/08/05 06:50:58;;;;;;;;;;;26.00;73.50;;;;;;5168308;27;19937;-33
2023/08/05 06:53:24;;;;;;;;;;;26.00;73.60;;;;;;5173605;27;19915;-34
2023/08/05 06:55:59;;;;;;;;;;;26.00;73.60;;;;;;5169045;27;20003;-33
2023/08/05 06:58:25;;;;;;;;;;;26.00;73.70;;;;;;5178402;27;19961;-34
2023/08/05 07:00:52;;;;;;;;;;;26.00;73.70;;;;;;5176159;27;19912;-33
2023/08/05 07:03:18;;;;;;;;;;;26.00;73.60;;;;;;5176992;27;19918;-34
2023/08/05 07:05:43;;;;;;;;;;;25.90;73.60;;;;;;5167516;27;19929;-33
2023/08/05 07:08:10;;;;;;;;;;;25.90;73.70;;;;;;5169881;27;19926;-33
2023/08/05 07:10:36;;;;;;;;;;;25.90;73.70;;;;;;5169722;27;19919;-34
2023/08/05 07:13:05;;;;;;;;;;;25.90;73.60;;;;;;5171859;27;20426;-33
2023/08/05 07:15:34;;;;;;;;;;;25.90;73.60;;;;;;5169065;27;19915;-33
2023/08/05 07:18:00;;;;;;;;;;;25.90;73.60;;;;;;5166995;27;19926;-33
2023/08/05 07:20:26;;;;;;;;;;;25.90;73.60;;;;;;5171316;27;19911;-33
2023/08/05 07:22:52;;;;;;;;;;;25.90;73.60;;;;;;5175005;27;19907;-33
2023/08/05 07:25:18;;;;;;;;;;;25.90;73.60;;;;;;5167183;27;19921;-34
2023/08/05 07:27:44;;;;;;;;;;;25.80;73.60;;;;;;5172707;27;19915;-33
2023/08/05 07:30:10;;;;;;;;;;;25.80;73.60;;;;;;5169408;27;20032;-34
2023/08/05 07:32:36;;;;;;;;;;;25.80;73.50;;;;;;5173478;27;19918;-33
2023/08/05 07:35:03;;;;;;;;;;;25.80;73.70;;;;;;5171386;27;19919;-34
2023/08/05 07:37:31;;;;;;;;;;;25.80;73.70;;;;;;5171563;27;19986;-34
2023/08/05 07:39:57;;;;;;;;;;;25.80;73.70;;;;;;5170686;27;20394;-34
2023/08/05 07:42:25;;;;;;;;;;;25.80;73.70;;;;;;5177006;27;19946;-33
2023/08/05 07:44:52;;;;;;;;;;;25.80;73.60;;;;;;5174471;27;19919;-33
2023/08/05 07:47:18;;;;;;;;;;;25.80;73.80;;;;;;5170070;27;19956;-34
2023/08/05 07:49:44;;;;;;;;;;;25.80;73.80;;;;;;5173087;27;20317;-34
2023/08/05 07:52:10;;;;;;;;;;;25.80;73.70;;;;;;5180560;27;19970;-33
2023/08/05 07:54:36;;;;;;;;;;;25.80;73.80;;;;;;5176376;27;19915;-33
2023/08/05 07:57:02;;;;;;;;;;;25.80;73.80;;;;;;5175019;27;19919;-33
2023/08/05 07:59:28;;;;;;;;;;;25.80;73.80;;;;;;5180046;27;20017;-34
2023/08/05 08:01:55;;;;;;;;;;;25.70;73.70;;;;;;5174109;27;19942;-43
2023/08/05 08:04:21;;;;;;;;;;;25.70;73.70;;;;;;5184705;27;20102;-33
2023/08/05 08:06:48;;;;;;;;;;;25.70;73.80;;;;;;5185641;27;19910;-33
2023/08/05 08:09:14;;;;;;;;;;;25.70;73.80;;;;;;5183227;27;19950;-34
2023/08/05 08:11:40;;;;;;;;;;;25.70;73.80;;;;;;5180821;27;19919;-34
2023/08/05 08:14:06;;;;;;;;;;;25.70;73.80;;;;;;5170969;27;19923;-34
2023/08/05 08:16:32;;;;;;;;;;;25.70;73.80;;;;;;5166863;27;20299;-33
2023/08/05 08:18:58;;;;;;;;;;;25.70;73.80;;;;;;5174017;27;19926;-33
2023/08/05 08:21:24;;;;;;;;;;;25.70;73.90;;;;;;5181373;27;19921;-33
2023/08/05 08:23:50;;;;;;;;;;;25.70;73.90;;;;;;5184317;27;19914;-34
2023/08/05 08:26:16;;;;;;;;;;;25.70;74.00;;;;;;5181127;27;19911;-33
2023/08/05 08:28:42;;;;;;;;;;;25.70;73.90;;;;;;5166513;27;19922;-33
2023/08/05 08:31:08;;;;;;;;;;;25.60;73.80;;;;;;5168348;27;19919;-33
2023/08/05 08:33:33;;;;;;;;;;;25.60;73.90;;;;;;5184684;27;19922;-34
2023/08/05 08:35:59;;;;;;;;;;;25.60;73.90;;;;;;5184681;27;19915;-34
2023/08/05 08:38:25;;;;;;;;;;;25.60;74.00;;;;;;5172045;27;19918;-34
2023/08/05 08:40:51;;;;;;;;;;;25.60;73.80;;;;;;5172789;27;19915;-33
2023/08/05 08:43:20;;;;;;;;;;;25.60;73.90;;;;;;5175065;27;20029;-33
2023/08/05 08:45:47;;;;;;;;;;;25.60;73.90;;;;;;5166376;27;19918;-34
2023/08/05 08:48:15;;;;;;;;;;;25.60;73.90;;;;;;5183353;27;19915;-34
2023/08/05 08:50:41;;;;;;;;;;;25.60;73.90;;;;;;5183003;27;19910;-34
2023/08/05 08:53:07;;;;;;;;;;;25.60;74.00;;;;;;5155980;27;19921;-33
2023/08/05 08:55:33;;;;;;;;;;;25.60;73.90;;;;;;5183099;27;19915;-33
2023/08/05 08:57:59;;;;;;;;;;;25.60;74.00;;;;;;5181650;27;20412;-34
2023/08/05 09:00:25;;;;;;;;;;;25.60;73.90;;;;;;5149944;27;20382;-33
2023/08/05 09:02:51;;;;;;;;;;;25.60;74.00;;;;;;5180453;27;19914;-34
2023/08/05 09:05:17;;;;;;;;;;;25.60;74.10;;;;;;5163164;27;19926;-33
2023/08/05 09:07:43;;;;;;;;;;;25.50;73.90;;;;;;5172110;27;19915;-34
2023/08/05 09:10:09;;;;;;;;;;;25.50;74.00;;;;;;5146671;27;19922;-33
2023/08/05 09:12:35;;;;;;;;;;;25.50;74.00;;;;;;5147861;27;19953;-33
2023/08/05 09:15:01;;;;;;;;;;;25.50;74.00;;;;;;5165667;27;19912;-34
2023/08/05 09:17:27;;;;;;;;;;;25.50;74.00;;;;;;5176396;27;19982;-33
2023/08/05 09:19:53;;;;;;;;;;;25.50;74.20;;;;;;5158696;27;20005;-33
2023/08/05 09:22:19;;;;;;;;;;;25.50;74.00;;;;;;5170480;27;19910;-33
2023/08/05 09:24:45;;;;;;;;;;;25.50;74.00;;;;;;5178481;27;19953;-33
2023/08/05 09:27:10;;;;;;;;;;;25.50;74.10;;;;;;5169248;27;19911;-34
2023/08/05 09:29:36;;;;;;;;;;;25.50;74.10;;;;;;5175183;27;19921;-33
2023/08/05 09:32:03;;;;;;;;;;;25.50;74.10;;;;;;5173447;27;19924;-34
2023/08/05 09:34:33;;;;;;;;;;;25.40;73.90;;;;;;5169926;27;19940;-34
2023/08/05 09:36:59;;;;;;;;;;;25.40;73.90;;;;;;5182308;27;20553;-33
2023/08/05 09:39:30;;;;;;;;;;;25.40;73.90;;;;;;5177147;27;19911;-34
2023/08/05 09:41:56;;;;;;;;;;;25.40;74.00;;;;;;5184338;27;19910;-36
2023/08/05 09:44:22;;;;;;;;;;;25.40;74.00;;;;;;5165722;27;19922;-33
2023/08/05 09:46:48;;;;;;;;;;;25.40;74.10;;;;;;5175081;27;19915;-34
2023/08/05 09:49:15;;;;;;;;;;;25.40;74.10;;;;;;5178164;27;19933;-33
2023/08/05 09:51:45;;;;;;;;;;;25.40;74.20;;;;;;5179814;27;19978;-34
2023/08/05 09:54:16;;;;;;;;;;;25.40;74.20;;;;;;5169409;27;19987;-34
2023/08/05 09:56:43;;;;;;;;;;;25.40;74.20;;;;;;5174358;27;20006;-33
2023/08/05 09:59:08;;;;;;;;;;;25.40;74.20;;;;;;5167809;27;19938;-33
2023/08/05 10:01:35;;;;;;;;;;;25.40;74.20;;;;;;5171656;27;20577;-33
2023/08/05 10:04:01;;;;;;;;;;;25.40;74.30;;;;;;5149259;27;19915;-33
2023/08/05 10:06:28;;;;;;;;;;;25.40;74.20;;;;;;5165091;27;19915;-34
2023/08/05 10:08:54;;;;;;;;;;;25.30;74.00;;;;;;5170663;27;19971;-35
2023/08/05 10:11:20;;;;;;;;;;;25.30;74.00;;;;;;5170282;27;19923;-33
2023/08/05 10:13:47;;;;;;;;;;;25.30;74.10;;;;;;5159052;27;19911;-34
2023/08/05 10:16:12;;;;;;;;;;;25.30;74.10;;;;;;5163408;27;19937;-34
2023/08/05 10:18:38;;;;;;;;;;;25.30;74.00;;;;;;5140175;27;19919;-33
2023/08/05 10:21:06;;;;;;;;;;;25.30;74.10;;;;;;5148208;27;20695;-33
2023/08/05 10:23:35;;;;;;;;;;;25.30;74.10;;;;;;5161079;27;19911;-33
2023/08/05 10:26:21;;;;;;;;;;;25.30;74.10;;;;;;5166546;27;19915;-34
2023/08/05 10:28:47;;;;;;;;;;;25.30;74.20;;;;;;5089576;28;19993;-33
2023/08/05 10:31:34;;;;;;;;;;;25.30;74.20;;;;;;5090203;28;19916;-34
2023/08/05 10:34:10;;;;;;;;;;;25.30;74.30;;;;;;5077000;28;20026;-33
2023/08/05 10:36:50;;;;;;;;;;;25.30;74.30;;;;;;5109075;28;19916;-34
2023/08/05 10:39:34;;;;;;;;;;;25.30;74.30;;;;;;5115379;28;19912;-34
2023/08/05 10:42:13;;;;;;;;;;;25.20;74.30;;;;;;5118787;28;19916;-33
2023/08/05 10:44:39;;;;;;;;;;;25.20;74.20;;;;;;5107111;28;19939;-33
2023/08/05 10:47:05;;;;;;;;;;;25.20;74.20;;;;;;5106671;28;19966;-33
2023/08/05 10:49:31;;;;;;;;;;;25.20;74.30;;;;;;5106686;28;19985;-33
2023/08/05 10:51:57;;;;;;;;;;;25.20;74.20;;;;;;5123803;28;19911;-33
2023/08/05 10:54:22;;;;;;;;;;;25.20;74.20;;;;;;5123777;27;19937;-34
2023/08/05 10:56:48;;;;;;;;;;;25.20;74.20;;;;;;5124010;28;20599;-33
2023/08/05 10:59:14;;;;;;;;;;;25.20;74.20;;;;;;5119788;27;20300;-33
2023/08/05 11:01:52;;;;;;;;;;;25.20;74.20;;;;;;5123519;28;19916;-33
2023/08/05 11:04:33;;;;;;;;;;;25.20;74.30;;;;;;5121434;28;20028;-34
2023/08/05 11:07:03;;;;;;;;;;;25.20;74.30;;;;;;5178647;27;19945;-34
2023/08/05 11:09:35;;;;;;;;;;;25.20;74.20;;;;;;5168993;27;19911;-34
2023/08/05 11:12:01;;;;;;;;;;;25.20;74.30;;;;;;5165799;27;19939;-34
2023/08/05 11:14:27;;;;;;;;;;;25.20;74.30;;;;;;5169723;27;20434;-33
2023/08/05 11:16:59;;;;;;;;;;;25.10;74.20;;;;;;5167074;27;19954;-33
2023/08/05 11:19:24;;;;;;;;;;;25.10;74.30;;;;;;5156686;27;19923;-33
2023/08/05 11:21:50;;;;;;;;;;;25.10;74.20;;;;;;5171951;27;19911;-33
2023/08/05 11:24:19;;;;;;;;;;;25.10;74.30;;;;;;5158175;27;20006;-33
2023/08/05 11:26:46;;;;;;;;;;;25.10;74.30;;;;;;5169805;27;19926;-33
2023/08/05 11:29:13;;;;;;;;;;;25.10;74.30;;;;;;5168084;27;19911;-33
2023/08/05 11:31:49;;;;;;;;;;;25.10;74.30;;;;;;5169676;27;20415;-34
2023/08/05 11:34:20;;;;;;;;;;;25.10;74.30;;;;;;5170200;27;20573;-34
2023/08/05 11:36:45;;;;;;;;;;;25.10;74.30;;;;;;5168825;27;19979;-34
2023/08/05 11:39:11;;;;;;;;;;;25.10;74.30;;;;;;5156165;27;19950;-34
2023/08/05 11:41:37;;;;;;;;;;;25.10;74.40;;;;;;5148608;27;19911;-34
2023/08/05 11:44:03;;;;;;;;;;;25.10;74.40;;;;;;5172145;27;19918;-33
2023/08/05 11:46:29;;;;;;;;;;;25.10;74.30;;;;;;5168782;27;19988;-33
2023/08/05 11:49:08;;;;;;;;;;;25.10;74.40;;;;;;5151292;27;19915;-33
2023/08/05 11:51:50;;;;;;;;;;;25.00;74.30;;;;;;5166213;27;19919;-33
2023/08/05 11:54:29;;;;;;;;;;;25.00;74.40;;;;;;5166208;27;19917;-33
2023/08/05 11:56:55;;;;;;;;;;;25.00;74.40;;;;;;5151807;27;19991;-33
2023/08/05 11:59:42;;;;;;;;;;;25.00;74.50;;;;;;5171359;27;20026;-34
2023/08/05 12:02:09;;;;;;;;;;;25.00;74.50;;;;;;5167331;27;19950;-34
2023/08/05 12:05:01;;;;;;;;;;;25.00;74.60;;;;;;5170719;27;19950;-34
2023/08/05 12:07:27;;;;;;;;;;;25.00;74.60;;;;;;5165624;27;19910;-34
2023/08/05 12:10:05;;;;;;;;;;;25.00;74.60;;;;;;5168460;27;19926;-34
2023/08/05 12:12:31;;;;;;;;;;;25.00;74.60;;;;;;5176037;27;19911;-33
2023/08/05 12:15:10;;;;;;;;;;;25.00;74.60;;;;;;5170980;27;20092;-33
2023/08/05 12:17:37;;;;;;;;;;;25.00;74.60;;;;;;5167179;27;19930;-33
2023/08/05 12:20:04;;;;;;;;;;;25.00;74.60;;;;;;5167367;27;19935;-34
2023/08/05 12:22:31;;;;;;;;;;;25.00;74.60;;;;;;5178210;27;19915;-33
2023/08/05 12:24:56;;;;;;;;;;;25.00;74.60;;;;;;5173662;27;20561;-33
2023/08/05 12:27:22;;;;;;;;;;;25.00;74.70;;;;;;5167037;27;19918;-33
2023/08/05 12:29:48;;;;;;;;;;;25.00;74.70;;;;;;5170633;27;19949;-34
2023/08/05 12:32:14;;;;;;;;;;;25.00;74.70;;;;;;5168608;27;20426;-34
2023/08/05 12:34:40;;;;;;;;;;;25.00;74.70;;;;;;5178287;27;20259;-33
2023/08/05 12:37:06;;;;;;;;;;;25.00;74.70;;;;;;5169746;27;19927;-33
2023/08/05 12:39:32;;;;;;;;;;;25.00;74.80;;;;;;5169975;27;19914;-33
2023/08/05 12:41:57;;;;;;;;;;;25.00;74.80;;;;;;5176912;27;19926;-33
2023/08/05 12:44:23;;;;;;;;;;;25.00;74.90;;;;;;5176107;27;19924;-34
2023/08/05 12:46:49;;;;;;;;;;;25.00;74.90;;;;;;5177714;27;19911;-33
2023/08/05 12:49:15;;;;;;;;;;;25.00;74.90;;;;;;5183236;27;19936;-33
2023/08/05 12:51:41;;;;;;;;;;;25.00;75.00;;;;;;5175639;27;19911;-33
2023/08/05 12:54:07;;;;;;;;;;;25.00;74.90;;;;;;5173917;27;19911;-34
2023/08/05 12:56:33;;;;;;;;;;;24.90;75.00;;;;;;5175109;27;19942;-34
2023/08/05 12:58:58;;;;;;;;;;;24.90;74.90;;;;;;5168373;27;19944;-34
2023/08/05 13:01:24;;;;;;;;;;;24.90;75.00;;;;;;5171739;27;20363;-33
2023/08/05 13:03:50;;;;;;;;;;;24.90;75.00;;;;;;5173924;27;20327;-33
2023/08/05 13:06:16;;;;;;;;;;;24.90;75.00;;;;;;5167640;27;19919;-34
2023/08/05 13:08:42;;;;;;;;;;;24.90;75.00;;;;;;5172955;27;19915;-34
2023/08/05 13:11:08;;;;;;;;;;;24.90;75.00;;;;;;5180595;27;19946;-33
2023/08/05 13:13:34;;;;;;;;;;;24.90;75.00;;;;;;5172960;27;19922;-33
2023/08/05 13:15:59;;;;;;;;;;;24.90;75.00;;;;;;5173528;27;19918;-33
2023/08/05 13:18:25;;;;;;;;;;;24.90;75.00;;;;;;5174555;27;19989;-34
2023/08/05 13:20:51;;;;;;;;;;;25.00;75.20;;;;;;5172174;27;20199;-34
2023/08/05 13:23:17;;;;;;;;;;;25.00;75.20;;;;;;5169401;27;20031;-33
2023/08/05 13:25:44;;;;;;;;;;;25.00;75.30;;;;;;5171060;27;19946;-33
2023/08/05 13:28:09;;;;;;;;;;;25.00;75.30;;;;;;5174068;27;19922;-33
2023/08/05 13:30:35;;;;;;;;;;;25.00;75.40;;;;;;5179666;27;19911;-34
2023/08/05 13:33:01;;;;;;;;;;;24.90;75.30;;;;;;5180181;27;20367;-34
2023/08/05 13:35:28;;;;;;;;;;;25.00;75.30;;;;;;5169349;27;19966;-34
2023/08/05 13:37:54;;;;;;;;;;;25.00;75.30;;;;;;5175434;27;19941;-33
2023/08/05 13:40:21;;;;;;;;;;;25.00;75.30;;;;;;5180699;27;19914;-33
2023/08/05 13:42:47;;;;;;;;;;;24.90;75.20;;;;;;5178965;27;19910;-34
2023/08/05 13:45:12;;;;;;;;;;;25.00;75.20;;;;;;5182709;27;19921;-34
2023/08/05 13:47:38;;;;;;;;;;;25.00;75.20;;;;;;5176847;27;19919;-34
2023/08/05 13:50:05;;;;;;;;;;;25.00;75.20;;;;;;5175695;27;19910;-33
2023/08/05 13:52:30;;;;;;;;;;;25.00;75.10;;;;;;5178567;27;19914;-34
2023/08/05 13:54:56;;;;;;;;;;;25.00;75.10;;;;;;5173704;27;19942;-34
2023/08/05 13:57:22;;;;;;;;;;;25.00;75.10;;;;;;5170857;27;19919;-34
2023/08/05 13:59:48;;;;;;;;;;;25.00;75.10;;;;;;5172394;27;20554;-34
2023/08/05 14:02:14;;;;;;;;;;;25.00;75.30;;;;;;5185359;27;19911;-33
2023/08/05 14:04:43;;;;;;;;;;;25.00;75.40;;;;;;5175259;27;19918;-33
2023/08/05 14:07:09;;;;;;;;;;;25.00;75.40;;;;;;5175800;27;19958;-34
2023/08/05 14:09:35;;;;;;;;;;;25.00;75.60;;;;;;5182451;27;19915;-34
2023/08/05 14:12:02;;;;;;;;;;;25.00;75.80;;;;;;5178616;27;19978;-34
2023/08/05 14:14:27;;;;;;;;;;;25.00;75.70;;;;;;5179703;27;20270;-34